Time;durP1;ratioP1;P1;durP2;ratioP2;P2;SDS_P1;SDS_P2;PMS_P1;PMS_P2;Temp;Humidity;BMP_temperature;BMP_pressure;BME280_temperature;BME280_humidity;BME280_pressure;Samples;Min_cycle;Max_cycle;Signal;HPM_P1;HPM_P2
2022/01/10 00:02:09;;;;;;;18.60;4.90;;;;;;;3.28;100.00;99991.88;7396446;19;20433;-48
2022/01/10 00:04:39;;;;;;;18.80;4.80;;;;;;;3.31;100.00;99997.19;7400253;19;20832;-51
2022/01/10 00:07:09;;;;;;;16.07;5.17;;;;;;;3.38;100.00;100004.41;7395536;19;20400;-47
2022/01/10 00:09:41;;;;;;;16.90;5.30;;;;;;;3.33;100.00;100000.69;7398936;19;20491;-47
2022/01/10 00:12:12;;;;;;;15.63;4.73;;;;;;;3.24;100.00;100005.25;7394988;19;20431;-48
2022/01/10 00:14:41;;;;;;;20.83;4.80;;;;;;;3.33;100.00;100010.03;7400351;19;20387;-48
2022/01/10 00:17:11;;;;;;;18.40;4.37;;;;;;;3.37;100.00;100019.59;7396505;19;20419;-46
2022/01/10 00:19:41;;;;;;;21.10;5.20;;;;;;;3.22;100.00;100015.38;7398272;19;20872;-46
2022/01/10 00:22:11;;;;;;;19.53;4.97;;;;;;;3.34;100.00;100020.28;7396363;19;20486;-47
2022/01/10 00:24:43;;;;;;;18.50;4.50;;;;;;;3.23;100.00;100026.47;7400069;19;20392;-53
2022/01/10 00:27:14;;;;;;;15.63;5.30;;;;;;;3.25;100.00;100027.41;7395449;19;20415;-47
2022/01/10 00:29:43;;;;;;;22.00;5.67;;;;;;;3.24;100.00;100036.72;7398512;19;20420;-48
2022/01/10 00:32:13;;;;;;;20.03;5.60;;;;;;;3.30;100.00;100046.44;7396582;19;20795;-47
2022/01/10 00:34:42;;;;;;;29.60;5.37;;;;;;;3.22;100.00;100048.50;7404302;19;20400;-48
2022/01/10 00:37:13;;;;;;;23.90;5.77;;;;;;;3.24;100.00;100051.16;7392265;19;20520;-50
2022/01/10 00:39:46;;;;;;;27.97;5.77;;;;;;;3.26;100.00;100058.88;7393468;19;20424;-48
2022/01/10 00:42:16;;;;;;;17.70;5.60;;;;;;;3.28;100.00;100063.28;7392463;19;20419;-52
2022/01/10 00:44:51;;;;;;;17.87;4.63;;;;;;;3.24;100.00;100069.88;7396275;19;21000;-52
2022/01/10 00:47:21;;;;;;;18.30;5.30;;;;;;;3.27;100.00;100075.97;7392214;19;20482;-51
2022/01/10 00:49:50;;;;;;;16.43;5.10;;;;;;;3.19;100.00;100078.03;7394801;19;20408;-49
2022/01/10 00:52:21;;;;;;;18.23;5.60;;;;;;;3.12;100.00;100081.00;7392733;19;20434;-51
2022/01/10 00:54:53;;;;;;;19.10;5.43;;;;;;;3.16;100.00;100080.38;7394522;19;20452;-48
2022/01/10 00:57:23;;;;;;;12.50;4.43;;;;;;;3.19;100.00;100088.25;7391163;19;20756;-47
2022/01/10 00:59:52;;;;;;;27.10;6.47;;;;;;;3.21;100.00;100097.75;7394535;19;20753;-54
2022/01/10 01:02:25;;;;;;;22.60;4.77;;;;;;;3.26;100.00;100109.88;7392143;19;20416;-49
2022/01/10 01:04:55;;;;;;;22.53;5.73;;;;;;;3.31;100.00;100114.47;7396577;19;20836;-46
2022/01/10 01:07:25;;;;;;;24.53;6.80;;;;;;;3.43;100.00;100124.53;7392693;19;20687;-50
2022/01/10 01:10:10;;;;;;;23.00;5.23;;;;;;;3.36;100.00;100130.94;7400152;19;20427;-48
2022/01/10 01:12:46;;;;;;;17.50;5.40;;;;;;;3.34;100.00;100142.72;7399771;19;20411;-50
2022/01/10 01:15:25;;;;;;;14.10;5.17;;;;;;;3.34;100.00;100144.41;7405645;19;20455;-50
2022/01/10 01:18:15;;;;;;;12.20;5.00;;;;;;;3.37;100.00;100145.47;7399045;19;20486;-50
2022/01/10 01:23:59;;;;;;;26.57;5.73;;;;;;;3.37;100.00;100150.56;7404017;19;20399;-47
2022/01/10 01:26:20;;;;;;;19.30;5.13;;;;;;;3.33;100.00;100163.91;7400280;19;20396;-46
2022/01/10 01:28:49;;;;;;;18.60;5.80;;;;;;;3.34;100.00;100160.56;7402146;19;20419;-48
2022/01/10 01:31:19;;;;;;;22.20;6.00;;;;;;;3.38;100.00;100167.63;7400570;19;20451;-49
2022/01/10 01:33:48;;;;;;;16.93;5.90;;;;;;;3.36;100.00;100181.06;7408954;19;20406;-50
2022/01/10 01:36:22;;;;;;;13.73;4.40;;;;;;;3.33;100.00;100181.75;7401058;19;20406;-47
2022/01/10 01:38:52;;;;;;;13.47;4.50;;;;;;;3.41;100.00;100183.88;7401556;19;20407;-48
2022/01/10 01:41:35;;;;;;;15.83;4.77;;;;;;;3.36;100.00;100198.91;7404683;19;20756;-48
2022/01/10 01:44:06;;;;;;;22.40;5.90;;;;;;;3.35;100.00;100198.03;7408706;19;20410;-47
2022/01/10 01:46:36;;;;;;;29.43;5.53;;;;;;;3.32;100.00;100213.16;7399568;19;20436;-48
2022/01/10 01:49:07;;;;;;;20.57;5.00;;;;;;;3.37;100.00;100214.31;7399722;19;20685;-50
2022/01/10 01:51:37;;;;;;;21.20;5.80;;;;;;;3.34;100.00;100223.44;7400330;19;20399;-46
2022/01/10 01:54:08;;;;;;;10.53;4.63;;;;;;;3.33;100.00;100230.22;7404724;19;20402;-51
2022/01/10 01:56:41;;;;;;;19.50;5.97;;;;;;;3.35;100.00;100233.72;7400916;19;20753;-50
2022/01/10 01:59:12;;;;;;;25.37;6.40;;;;;;;3.40;100.00;100230.59;7401608;19;20499;-46
2022/01/10 02:01:41;;;;;;;23.87;6.10;;;;;;;3.42;100.00;100239.22;7400609;19;20878;-49
2022/01/10 02:04:11;;;;;;;16.37;5.67;;;;;;;3.40;100.00;100241.69;7402677;19;20865;-45
2022/01/10 02:06:41;;;;;;;31.90;6.40;;;;;;;3.42;100.00;100245.22;7400014;19;20411;-46
2022/01/10 02:09:14;;;;;;;17.73;5.60;;;;;;;3.34;100.00;100249.81;7400954;19;20691;-50
2022/01/10 02:11:46;;;;;;;17.40;6.17;;;;;;;3.30;100.00;100258.09;7400076;19;20864;-49
2022/01/10 02:14:18;;;;;;;16.77;5.50;;;;;;;3.28;100.00;100258.78;7403810;19;20901;-45
2022/01/10 02:16:54;;;;;;;18.70;5.50;;;;;;;3.28;100.00;100262.19;7398629;19;20432;-46
2022/01/10 02:19:24;;;;;;;22.70;5.80;;;;;;;3.27;100.00;100267.22;7401181;19;20426;-48
2022/01/10 02:21:56;;;;;;;23.30;5.60;;;;;;;3.36;100.00;100275.44;7399553;19;20486;-48
2022/01/10 02:24:25;;;;;;;25.23;5.60;;;;;;;3.36;100.00;100276.31;7403775;19;20384;-46
2022/01/10 02:26:55;;;;;;;23.80;6.47;;;;;;;3.38;100.00;100284.94;7402556;19;20411;-49
2022/01/10 02:29:24;;;;;;;24.93;5.60;;;;;;;3.34;100.00;100288.06;7401849;19;20406;-49
2022/01/10 02:31:54;;;;;;;18.77;5.37;;;;;;;3.32;100.00;100293.84;7400593;19;20411;-53
2022/01/10 02:34:25;;;;;;;26.13;6.37;;;;;;;3.38;100.00;100300.25;7403871;19;20390;-46
2022/01/10 02:37:00;;;;;;;18.70;5.93;;;;;;;3.41;100.00;100313.97;7400234;19;20426;-47
2022/01/10 02:39:29;;;;;;;37.83;13.23;;;;;;;3.44;100.00;100312.50;7401775;19;20707;-49
2022/01/10 02:41:59;;;;;;;17.10;7.10;;;;;;;3.45;100.00;100321.03;7398865;19;20491;-47
2022/01/10 02:44:29;;;;;;;13.50;5.50;;;;;;;3.43;100.00;100322.63;7402519;19;20394;-48
2022/01/10 02:46:59;;;;;;;19.80;6.43;;;;;;;3.44;100.00;100324.38;7398378;19;20443;-54
2022/01/10 02:49:30;;;;;;;19.70;5.70;;;;;;;3.46;100.00;100335.56;7401969;19;20568;-48
2022/01/10 02:52:03;;;;;;;24.97;6.50;;;;;;;3.47;100.00;100342.41;7400209;19;20407;-50
2022/01/10 02:54:32;;;;;;;23.43;7.30;;;;;;;3.48;100.00;100346.72;7403257;19;20652;-50
2022/01/10 02:57:02;;;;;;;23.57;7.10;;;;;;;3.46;100.00;100353.41;7398474;19;20413;-49
2022/01/10 02:59:31;;;;;;;43.53;14.47;;;;;;;3.37;100.00;100362.25;7400315;19;20423;-46
2022/01/10 03:02:01;;;;;;;33.87;13.43;;;;;;;3.19;100.00;100369.56;7398900;19;20491;-50
2022/01/10 03:04:30;;;;;;;46.43;11.73;;;;;;;2.80;100.00;100379.81;7401868;19;20388;-47
2022/01/10 03:07:02;;;;;;;47.57;12.17;;;;;;;2.80;100.00;100390.00;7398751;19;20426;-47
2022/01/10 03:09:32;;;;;;;43.63;11.07;;;;;;;2.83;100.00;100396.97;7400838;19;20487;-49
2022/01/10 03:12:01;;;;;;;56.03;11.70;;;;;;;2.73;100.00;100395.47;7399542;19;20401;-52
2022/01/10 03:14:31;;;;;;;35.00;10.53;;;;;;;2.76;100.00;100403.28;7401911;19;20684;-51
2022/01/10 03:17:00;;;;;;;32.87;11.30;;;;;;;2.67;100.00;100407.78;7397945;19;20912;-53
2022/01/10 03:19:30;;;;;;;27.87;10.57;;;;;;;2.57;100.00;100416.47;7399758;19;20433;-47
2022/01/10 03:21:59;;;;;;;45.93;11.03;;;;;;;2.53;100.00;100428.09;7399237;19;20491;-46
2022/01/10 03:24:31;;;;;;;30.07;9.83;;;;;;;2.50;100.00;100427.88;7402297;19;20514;-49
2022/01/10 03:27:01;;;;;;;27.90;10.50;;;;;;;2.43;100.00;100430.78;7398621;19;20425;-52
2022/01/10 03:29:30;;;;;;;25.53;11.17;;;;;;;2.47;100.00;100439.53;7399619;19;20968;-45
2022/01/10 03:32:01;;;;;;;32.57;11.67;;;;;;;2.43;100.00;100448.59;7398341;19;20423;-48
2022/01/10 03:34:31;;;;;;;20.00;10.90;;;;;;;2.37;100.00;100443.09;7400881;19;20397;-48
2022/01/10 03:37:00;;;;;;;28.20;10.90;;;;;;;2.36;100.00;100454.06;7397319;19;20416;-45
2022/01/10 03:39:32;;;;;;;28.00;12.80;;;;;;;2.29;100.00;100455.28;7400204;19;20438;-46
2022/01/10 03:42:02;;;;;;;23.97;11.20;;;;;;;2.27;100.00;100459.38;7397517;19;20481;-47
2022/01/10 03:44:31;;;;;;;19.03;12.30;;;;;;;2.23;100.00;100458.28;7406062;19;20396;-50
2022/01/10 03:47:02;;;;;;;18.33;10.70;;;;;;;2.26;100.00;100461.03;7397763;19;20419;-48
2022/01/10 03:49:31;;;;;;;19.10;11.27;;;;;;;2.30;100.00;100477.41;7399669;19;20499;-46
2022/01/10 03:52:01;;;;;;;18.87;11.30;;;;;;;2.26;100.00;100481.41;7397465;19;20701;-48
2022/01/10 03:54:33;;;;;;;18.67;11.70;;;;;;;2.19;100.00;100484.28;7401256;19;20390;-47
2022/01/10 03:57:02;;;;;;;19.73;11.73;;;;;;;2.21;100.00;100487.81;7396538;19;20417;-51
2022/01/10 03:59:32;;;;;;;20.20;12.30;;;;;;;2.17;100.00;100493.50;7399590;19;20413;-49
2022/01/10 04:02:03;;;;;;;21.47;12.93;;;;;;;2.14;100.00;100495.81;7394256;19;20423;-45
2022/01/10 04:04:33;;;;;;;19.37;11.67;;;;;;;2.13;100.00;100501.69;7400941;19;20409;-48
2022/01/10 04:07:03;;;;;;;20.07;12.00;;;;;;;2.14;100.00;100504.34;7395556;19;20517;-46
2022/01/10 04:09:35;;;;;;;18.37;12.10;;;;;;;2.08;100.00;100505.53;7399028;19;20433;-47
2022/01/10 04:12:04;;;;;;;19.33;11.30;;;;;;;2.08;100.00;100516.63;7396539;19;20933;-51
2022/01/10 04:14:34;;;;;;;16.80;10.73;;;;;;;2.04;100.00;100523.94;7400432;19;20391;-49
2022/01/10 04:17:03;;;;;;;30.47;17.07;;;;;;;2.02;100.00;100521.28;7394812;19;20496;-51
2022/01/10 04:19:33;;;;;;;28.03;13.97;;;;;;;2.00;100.00;100528.78;7398870;19;20447;-48
2022/01/10 04:22:03;;;;;;;21.73;13.43;;;;;;;2.05;100.00;100528.25;7395827;19;20445;-47
2022/01/10 04:24:36;;;;;;;20.43;12.20;;;;;;;2.06;100.00;100537.66;7400277;19;20462;-53
2022/01/10 04:27:06;;;;;;;22.43;12.90;;;;;;;2.04;100.00;100544.28;7395259;19;20482;-46
2022/01/10 04:29:35;;;;;;;26.43;14.87;;;;;;;2.05;100.00;100546.06;7397736;19;20712;-47
2022/01/10 04:32:05;;;;;;;33.47;16.17;;;;;;;2.05;100.00;100546.06;7397724;19;20454;-47
2022/01/10 04:34:35;;;;;;;25.63;14.77;;;;;;;1.98;100.00;100562.53;7399866;19;20447;-51
2022/01/10 04:37:06;;;;;;;22.40;14.13;;;;;;;2.00;100.00;100574.59;7395000;19;20411;-47
2022/01/10 04:39:38;;;;;;;23.17;13.30;;;;;;;2.04;100.00;100577.38;7398500;19;20884;-47
2022/01/10 04:42:08;;;;;;;26.47;15.20;;;;;;;2.00;100.00;100589.88;7396035;19;20431;-48
2022/01/10 04:44:38;;;;;;;24.23;12.43;;;;;;;1.91;100.00;100595.94;7399995;19;20882;-50
2022/01/10 04:47:08;;;;;;;20.70;12.07;;;;;;;1.87;100.00;100602.47;7394639;19;20415;-47
2022/01/10 04:49:59;;;;;;;28.20;15.97;;;;;;;1.86;100.00;100610.88;7397547;19;20409;-47
2022/01/10 04:52:27;;;;;;;30.53;16.87;;;;;;;1.89;100.00;100606.00;7396030;19;20410;-46
2022/01/10 04:54:59;;;;;;;43.93;22.23;;;;;;;1.90;100.00;100617.97;7399169;19;20396;-49
2022/01/10 04:57:29;;;;;;;36.63;18.47;;;;;;;1.83;100.00;100624.25;7395289;19;20487;-49
2022/01/10 04:59:59;;;;;;;38.43;19.83;;;;;;;1.89;100.00;100624.72;7398442;19;20759;-47
2022/01/10 05:02:28;;;;;;;34.13;18.27;;;;;;;1.92;100.00;100640.97;7394639;19;20421;-49
2022/01/10 05:04:58;;;;;;;28.97;16.77;;;;;;;1.91;100.00;100629.94;7398849;19;20408;-51
2022/01/10 05:07:28;;;;;;;30.03;17.57;;;;;;;1.91;100.00;100641.75;7393703;19;20696;-48
2022/01/10 05:10:00;;;;;;;26.47;13.93;;;;;;;1.86;100.00;100641.41;7396987;19;20486;-47
2022/01/10 05:12:29;;;;;;;22.33;12.03;;;;;;;1.93;100.00;100651.28;7395452;19;20475;-46
2022/01/10 05:14:59;;;;;;;23.37;13.20;;;;;;;1.90;100.00;100648.50;7398606;19;20459;-50
2022/01/10 05:17:28;;;;;;;20.17;12.37;;;;;;;1.92;100.00;100652.06;7393538;19;20487;-47
2022/01/10 05:19:58;;;;;;;21.33;12.73;;;;;;;1.93;100.00;100658.00;7395784;19;20502;-47
2022/01/10 05:22:30;;;;;;;23.90;13.80;;;;;;;1.92;100.00;100667.31;7393676;19;21067;-48
2022/01/10 05:25:02;;;;;;;22.23;13.37;;;;;;;1.86;100.00;100665.19;7397409;19;20442;-50
2022/01/10 05:27:31;;;;;;;25.87;14.47;;;;;;;1.84;100.00;100669.28;7394531;19;20413;-48
2022/01/10 05:30:01;;;;;;;23.20;14.07;;;;;;;1.85;100.00;100671.03;7396585;19;20415;-48
2022/01/10 05:32:30;;;;;;;22.80;13.40;;;;;;;1.91;100.00;100675.72;7393742;19;20494;-49
2022/01/10 05:35:00;;;;;;;22.67;13.83;;;;;;;1.89;100.00;100685.78;7398151;19;20390;-48
2022/01/10 05:37:29;;;;;;;23.13;13.30;;;;;;;1.86;100.00;100693.16;7393238;19;20490;-48
2022/01/10 05:40:01;;;;;;;22.60;13.57;;;;;;;1.86;100.00;100697.38;7399478;19;20451;-49
2022/01/10 05:42:31;;;;;;;25.53;13.77;;;;;;;1.83;100.00;100707.31;7392780;19;20427;-51
2022/01/10 05:45:02;;;;;;;21.53;12.60;;;;;;;1.78;100.00;100718.81;7397949;19;20640;-53
2022/01/10 05:47:31;;;;;;;21.10;13.33;;;;;;;1.77;100.00;100722.13;7393166;19;20478;-47
2022/01/10 05:50:03;;;;;;;25.47;13.50;;;;;;;1.82;100.00;100726.81;7395806;19;20482;-48
2022/01/10 05:52:32;;;;;;;23.20;12.97;;;;;;;1.74;100.00;100733.84;7394475;19;20404;-48
2022/01/10 05:55:05;;;;;;;22.90;13.03;;;;;;;1.70;100.00;100747.09;7403671;19;20462;-50
2022/01/10 05:57:34;;;;;;;21.20;12.47;;;;;;;1.64;100.00;100754.25;7399418;19;20430;-50
2022/01/10 06:00:04;;;;;;;25.53;14.37;;;;;;;1.64;100.00;100761.00;7404495;19;20398;-47
2022/01/10 06:02:33;;;;;;;21.13;12.90;;;;;;;1.70;100.00;100764.03;7399980;19;20459;-47
2022/01/10 06:05:08;;;;;;;23.73;13.30;;;;;;;1.73;100.00;100772.78;7404848;19;20395;-49
2022/01/10 06:07:39;;;;;;;23.27;13.40;;;;;;;1.68;100.00;100779.16;7397449;19;20474;-52
2022/01/10 06:10:11;;;;;;;21.50;12.87;;;;;;;1.57;100.00;100785.97;7403291;19;20400;-49
2022/01/10 06:12:41;;;;;;;22.93;11.70;;;;;;;1.53;100.00;100795.78;7401245;19;20876;-46
2022/01/10 06:15:11;;;;;;;22.43;12.90;;;;;;;1.57;100.00;100806.31;7403636;19;20391;-51
2022/01/10 06:17:41;;;;;;;22.40;13.25;;;;;;;1.59;100.00;100817.47;7399128;19;20412;-46
2022/01/10 06:20:11;;;;;;;24.20;13.57;;;;;;;1.62;100.00;100809.19;7404307;19;20211;-48
2022/01/10 06:22:41;;;;;;;26.00;13.93;;;;;;;1.68;100.00;100818.97;7398356;19;20684;-46
2022/01/10 06:25:16;;;;;;;25.30;13.47;;;;;;;1.69;100.00;100820.75;7404833;19;20692;-47
2022/01/10 06:27:46;;;;;;;22.73;12.47;;;;;;;1.69;100.00;100821.63;7399905;19;20490;-51
2022/01/10 06:30:15;;;;;;;29.17;14.43;;;;;;;1.75;100.00;100832.28;7402724;19;20452;-48
2022/01/10 06:32:45;;;;;;;22.60;13.53;;;;;;;1.77;100.00;100834.06;7398468;19;20421;-50
2022/01/10 06:35:15;;;;;;;28.77;13.80;;;;;;;1.78;100.00;100838.41;7402699;19;20904;-47
2022/01/10 06:37:45;;;;;;;26.30;15.17;;;;;;;1.75;100.00;100845.00;7399342;19;20431;-47
2022/01/10 06:40:18;;;;;;;25.13;14.57;;;;;;;1.70;100.00;100848.84;7403785;19;20387;-49
2022/01/10 06:42:47;;;;;;;24.30;14.40;;;;;;;1.67;100.00;100853.72;7400471;19;20446;-47
2022/01/10 06:45:20;;;;;;;24.90;14.60;;;;;;;1.71;100.00;100862.47;7403366;19;20392;-50
2022/01/10 06:47:50;;;;;;;27.00;15.10;;;;;;;1.71;100.00;100871.00;7398888;19;20411;-47
2022/01/10 06:50:19;;;;;;;26.00;14.67;;;;;;;1.72;100.00;100882.94;7401948;19;20377;-48
2022/01/10 06:52:50;;;;;;;26.57;15.10;;;;;;;1.66;100.00;100892.63;7399171;19;20425;-46
2022/01/10 06:55:22;;;;;;;34.20;16.27;;;;;;;1.69;100.00;100900.50;7402125;19;20388;-46
2022/01/10 06:57:53;;;;;;;25.70;14.57;;;;;;;1.65;100.00;100905.22;7398603;19;20504;-50
2022/01/10 07:00:23;;;;;;;28.30;14.90;;;;;;;1.66;100.00;100918.06;7403233;19;20388;-49
2022/01/10 07:02:53;;;;;;;31.93;14.70;;;;;;;1.62;100.00;100916.03;7398762;19;20506;-47
2022/01/10 07:05:22;;;;;;;29.47;14.93;;;;;;;1.67;100.00;100917.31;7400113;19;20405;-48
2022/01/10 07:07:52;;;;;;;27.37;15.87;;;;;;;1.70;100.00;100929.38;7396119;19;20490;-47
2022/01/10 07:10:24;;;;;;;25.70;15.43;;;;;;;1.70;100.00;100932.78;7401883;19;20383;-45
2022/01/10 07:12:55;;;;;;;28.03;15.40;;;;;;;1.68;100.00;100938.53;7398148;19;20716;-47
2022/01/10 07:15:25;;;;;;;27.20;15.33;;;;;;;1.63;100.00;100948.34;7402222;19;20416;-49
2022/01/10 07:17:55;;;;;;;28.10;16.27;;;;;;;1.71;100.00;100951.50;7395013;19;20418;-49
2022/01/10 07:20:24;;;;;;;30.30;16.17;;;;;;;1.66;100.00;100953.69;7406373;19;20451;-49
2022/01/10 07:22:54;;;;;;;27.53;15.10;;;;;;;1.60;100.00;100964.25;7398743;19;20887;-48
2022/01/10 07:25:26;;;;;;;24.83;14.40;;;;;;;1.61;100.00;100970.22;7401013;19;20394;-46
2022/01/10 07:27:56;;;;;;;30.10;16.97;;;;;;;1.66;100.00;100979.13;7397451;19;20424;-45
2022/01/10 07:30:25;;;;;;;34.47;17.40;;;;;;;1.67;100.00;100986.00;7400316;19;20872;-48
2022/01/10 07:32:56;;;;;;;33.40;16.73;;;;;;;1.62;100.00;100992.34;7400643;19;20427;-49
2022/01/10 07:35:25;;;;;;;27.80;15.90;;;;;;;1.56;100.00;100994.41;7401547;19;20878;-46
2022/01/10 07:37:55;;;;;;;26.90;15.93;;;;;;;1.53;100.00;101004.34;7397522;19;20512;-48
2022/01/10 07:40:29;;;;;;;28.73;16.27;;;;;;;1.50;100.00;101009.16;7400122;19;20389;-47
2022/01/10 07:42:59;;;;;;;29.00;16.70;;;;;;;1.55;100.00;101020.59;7397112;19;20699;-48
2022/01/10 07:45:28;;;;;;;26.73;14.80;;;;;;;1.57;100.00;101024.16;7399478;19;20511;-48
2022/01/10 07:47:59;;;;;;;29.77;16.03;;;;;;;1.58;100.00;101028.47;7398016;19;20458;-46
2022/01/10 07:50:28;;;;;;;30.17;16.30;;;;;;;1.64;100.00;101039.16;7400876;19;20380;-50
2022/01/10 07:52:58;;;;;;;32.17;17.70;;;;;;;1.65;100.00;101038.41;7397509;19;20485;-47
2022/01/10 07:55:30;;;;;;;34.10;17.93;;;;;;;1.67;100.00;101044.50;7400862;19;20125;-48
2022/01/10 07:57:59;;;;;;;33.00;18.10;;;;;;;1.63;100.00;101056.84;7399756;19;20518;-52
2022/01/10 08:00:29;;;;;;;30.90;17.17;;;;;;;1.61;100.00;101062.72;7405171;19;20403;-48
2022/01/10 08:02:59;;;;;;;28.67;16.53;;;;;;;1.65;100.00;101071.47;7399738;19;20447;-48
2022/01/10 08:05:28;;;;;;;29.87;16.43;;;;;;;1.67;100.00;101071.59;7403892;19;20389;-48
2022/01/10 08:07:59;;;;;;;34.17;18.00;;;;;;;1.69;100.00;101070.94;7399853;19;20518;-51
2022/01/10 08:10:31;;;;;;;32.57;17.90;;;;;;;1.75;100.00;101071.47;7403376;19;20479;-47
2022/01/10 08:13:00;;;;;;;30.47;16.43;;;;;;;1.71;100.00;101089.81;7394992;19;20450;-47
2022/01/10 08:15:30;;;;;;;31.13;17.30;;;;;;;1.74;100.00;101089.13;7402894;19;20463;-49
2022/01/10 08:18:00;;;;;;;35.07;18.00;;;;;;;1.76;100.00;101102.91;7398161;19;20470;-47
2022/01/10 08:20:29;;;;;;;36.33;19.03;;;;;;;1.81;100.00;101098.19;7399000;19;20389;-46
2022/01/10 08:22:59;;;;;;;33.23;18.33;;;;;;;1.79;100.00;101099.72;7396746;19;20416;-47
2022/01/10 08:25:31;;;;;;;35.43;18.23;;;;;;;1.79;100.00;101102.25;7399713;19;20414;-51
2022/01/10 08:28:01;;;;;;;34.80;17.80;;;;;;;1.84;100.00;101112.03;7395662;19;20486;-48
2022/01/10 08:30:30;;;;;;;38.80;18.93;;;;;;;1.78;100.00;101125.94;7402299;19;20420;-46
2022/01/10 08:33:00;;;;;;;42.20;19.30;;;;;;;1.78;100.00;101126.81;7394747;19;20498;-47
2022/01/10 08:35:30;;;;;;;38.27;19.47;;;;;;;1.79;100.00;101125.16;7399526;19;20472;-50
2022/01/10 08:37:59;;;;;;;41.97;19.30;;;;;;;1.75;100.00;101126.56;7393717;19;20431;-47
2022/01/10 08:40:34;;;;;;;34.90;18.17;;;;;;;1.83;100.00;101132.25;7398824;19;20394;-48
2022/01/10 08:43:09;;;;;;;41.90;19.80;;;;;;;1.79;100.00;101137.88;7395094;19;20419;-50
2022/01/10 08:45:39;;;;;;;39.17;19.77;;;;;;;1.78;100.00;101142.06;7399124;19;20391;-46
2022/01/10 08:48:10;;;;;;;38.60;20.00;;;;;;;1.85;100.00;101138.41;7394497;19;20432;-48
2022/01/10 08:50:40;;;;;;;50.97;22.70;;;;;;;1.90;100.00;101147.31;7398789;19;20451;-47
2022/01/10 08:53:12;;;;;;;40.60;20.13;;;;;;;1.90;100.00;101152.41;7394215;19;20483;-49
2022/01/10 08:55:44;;;;;;;52.43;22.77;;;;;;;1.88;100.00;101159.91;7399258;19;20468;-50
2022/01/10 08:58:13;;;;;;;49.30;22.75;;;;;;;1.94;100.00;101168.81;7386198;19;20443;-47
2022/01/10 09:00:43;;;;;;;51.67;25.23;;;;;;;2.02;100.00;101168.66;7398247;19;20197;-48
2022/01/10 09:03:12;;;;;;;51.97;25.30;;;;;;;2.06;100.00;101174.91;7395605;19;20672;-48
2022/01/10 09:05:42;;;;;;;52.10;23.67;;;;;;;2.01;100.00;101182.16;7398633;19;20382;-49
2022/01/10 09:08:12;;;;;;;51.70;24.93;;;;;;;2.02;100.00;101189.03;7396187;19;20465;-52
2022/01/10 09:10:44;;;;;;;104.80;48.30;;;;;;;2.08;100.00;101190.28;7398367;19;20391;-49
2022/01/10 09:13:14;;;;;;;183.87;75.13;;;;;;;2.36;100.00;101187.50;7393612;19;20433;-46
2022/01/10 09:15:43;;;;;;;120.70;49.83;;;;;;;2.34;100.00;101196.66;7397051;19;20452;-49
2022/01/10 09:18:14;;;;;;;54.83;24.97;;;;;;;2.21;100.00;101200.72;7394553;19;20727;-49
2022/01/10 09:20:44;;;;;;;55.33;26.60;;;;;;;2.14;100.00;101213.72;7399390;19;20467;-49
2022/01/10 09:23:14;;;;;;;54.17;24.83;;;;;;;2.16;100.00;101202.03;7393796;19;20433;-47
2022/01/10 09:25:46;;;;;;;48.47;24.10;;;;;;;2.12;100.00;101210.16;7398521;19;20455;-47
2022/01/10 09:28:16;;;;;;;58.73;25.20;;;;;;;2.11;100.00;101208.38;7398742;19;20522;-51
2022/01/10 09:30:45;;;;;;;62.23;26.83;;;;;;;2.11;100.00;101205.84;7405597;19;20440;-47
2022/01/10 09:33:15;;;;;;;52.07;23.20;;;;;;;2.20;100.00;101209.13;7401919;19;20435;-48
2022/01/10 09:35:45;;;;;;;44.10;21.50;;;;;;;2.15;100.00;101218.03;7405261;19;20459;-48
2022/01/10 09:38:15;;;;;;;49.40;22.97;;;;;;;2.13;100.00;101222.13;7404582;19;20530;-45
2022/01/10 09:40:47;;;;;;;54.03;25.33;;;;;;;2.18;100.00;101228.50;7407909;19;20463;-48
2022/01/10 09:43:21;;;;;;;50.33;24.63;;;;;;;2.23;100.00;101232.31;7401718;19;20696;-46
2022/01/10 09:45:54;;;;;;;48.63;24.80;;;;;;;2.25;100.00;101240.97;7405277;19;20402;-49
2022/01/10 09:48:24;;;;;;;47.23;24.77;;;;;;;2.35;100.00;101247.72;7398717;19;20486;-50
2022/01/10 09:51:14;;;;;;;47.93;23.70;;;;;;;2.38;100.00;101250.53;7401230;19;20382;-52
2022/01/10 09:53:44;;;;;;;45.57;22.73;;;;;;;2.40;100.00;101253.19;7404554;19;20389;-49
2022/01/10 09:56:16;;;;;;;50.57;25.70;;;;;;;2.36;100.00;101266.44;7401970;19;20876;-49
2022/01/10 09:58:48;;;;;;;55.27;25.67;;;;;;;2.32;100.00;101274.59;7402533;19;20422;-51
2022/01/10 10:01:19;;;;;;;52.93;26.07;;;;;;;2.34;100.00;101281.59;7401841;19;20443;-50
2022/01/10 10:03:50;;;;;;;59.50;27.70;;;;;;;2.32;100.00;101284.78;7403501;19;20461;-46
2022/01/10 10:06:20;;;;;;;58.17;27.47;;;;;;;2.29;100.00;101291.41;7398882;19;20481;-53
2022/01/10 10:08:50;;;;;;;68.10;28.37;;;;;;;2.29;100.00;101288.88;7402388;19;20414;-47
2022/01/10 10:11:22;;;;;;;61.83;27.40;;;;;;;2.28;100.00;101299.81;7403885;19;20478;-47
2022/01/10 10:13:54;;;;;;;57.13;27.43;;;;;;;2.32;100.00;101307.69;7408345;19;20756;-49
2022/01/10 10:16:26;;;;;;;64.40;28.43;;;;;;;2.34;100.00;101313.81;7403756;19;20427;-48
2022/01/10 10:18:56;;;;;;;58.87;26.23;;;;;;;2.37;100.00;101314.94;7402067;19;20416;-47
2022/01/10 10:21:25;;;;;;;53.10;26.27;;;;;;;2.38;100.00;101319.31;7398358;19;20409;-51
2022/01/10 10:23:55;;;;;;;57.37;26.20;;;;;;;2.40;100.00;101324.50;7402440;19;20392;-47
2022/01/10 10:26:28;;;;;;;56.97;26.47;;;;;;;2.38;100.00;101333.69;7400726;19;20433;-50
2022/01/10 10:28:58;;;;;;;54.10;26.63;;;;;;;2.43;100.00;101335.84;7402095;19;20483;-48
2022/01/10 10:31:29;;;;;;;56.50;27.40;;;;;;;2.45;100.00;101342.75;7400083;19;20478;-48
2022/01/10 10:34:01;;;;;;;67.17;29.90;;;;;;;2.50;100.00;101341.44;7403567;19;20384;-48
2022/01/10 10:36:33;;;;;;;60.53;27.67;;;;;;;2.47;100.00;101346.31;7399976;19;20416;-47
2022/01/10 10:39:06;;;;;;;71.40;29.27;;;;;;;2.46;100.00;101349.63;7401200;19;20421;-49
2022/01/10 10:41:39;;;;;;;70.13;30.17;;;;;;;2.50;100.00;101344.91;7398155;19;20434;-48
2022/01/10 10:44:08;;;;;;;67.57;30.83;;;;;;;2.53;100.00;101357.00;7403199;19;20460;-47
2022/01/10 10:46:38;;;;;;;66.57;29.20;;;;;;;2.44;100.00;101357.13;7399791;19;20427;-49
2022/01/10 10:49:07;;;;;;;65.70;28.93;;;;;;;2.45;100.00;101353.81;7400899;19;20415;-48
2022/01/10 10:51:38;;;;;;;71.20;31.77;;;;;;;2.56;100.00;101355.59;7398961;19;20403;-48
2022/01/10 10:54:10;;;;;;;79.67;35.17;;;;;;;2.62;100.00;101359.44;7402818;19;20395;-49
2022/01/10 10:56:44;;;;;;;69.30;31.70;;;;;;;2.76;100.00;101364.03;7399151;19;20404;-46
2022/01/10 10:59:14;;;;;;;72.77;32.20;;;;;;;2.78;100.00;101369.25;7399044;19;20760;-47
2022/01/10 11:01:44;;;;;;;69.73;28.70;;;;;;;2.75;100.00;101372.44;7394545;19;20707;-47
2022/01/10 11:04:14;;;;;;;71.60;30.40;;;;;;;2.75;100.00;101374.06;7400082;19;20889;-49
2022/01/10 11:06:44;;;;;;;66.50;29.57;;;;;;;2.76;100.00;101381.00;7395515;19;20444;-48
2022/01/10 11:09:14;;;;;;;67.20;30.10;;;;;;;2.75;100.00;101387.72;7398662;19;20411;-51
2022/01/10 11:11:48;;;;;;;70.13;29.70;;;;;;;2.80;100.00;101393.19;7397185;19;20424;-51
2022/01/10 11:14:22;;;;;;;56.20;27.77;;;;;;;2.75;100.00;101382.63;7400955;19;20492;-50
2022/01/10 11:16:52;;;;;;;58.43;29.80;;;;;;;2.75;100.00;101394.47;7396464;19;20417;-51
2022/01/10 11:19:26;;;;;;;61.03;28.90;;;;;;;2.81;100.00;101400.97;7396982;19;20415;-49
2022/01/10 11:21:57;;;;;;;69.17;31.33;;;;;;;2.89;100.00;101409.28;7395248;19;20691;-49
2022/01/10 11:24:47;;;;;;;71.90;31.30;;;;;;;2.88;100.00;101404.94;7401276;19;20392;-51
2022/01/10 11:27:33;;;;;;;69.50;32.63;;;;;;;2.92;100.00;101403.53;7396588;19;20416;-53
2022/01/10 11:30:08;;;;;;;65.10;30.50;;;;;;;2.97;100.00;101412.44;7400652;19;20375;-48
2022/01/10 11:32:56;;;;;;;67.17;30.70;;;;;;;2.96;100.00;101414.13;7396807;19;20910;-47